Robin B Ingram — WDB9002 — position and weather

sailwx.info

Track history (hours):
 
Tides and Currents Weather Stations Pressure Air Temp Water Temp Dewpoint Dewpoint Depression Visibility Wind Speed Wind Dir Waves Ship Positions

Robin B Ingram

Owner: Ingram Barge Company LLC, Nashville, TN. More information available from US FCC via Universal Licensing System and Coast Guard Vessel Documentation Center.

Last reported at 2018-Feb-21 01:30 UTC. Time now 2018-Feb-21 01:57 UTC.
Position N 38°58' W 090°33'.

Length 39 m; draft 2.7 m.

Type: Towing. MMSI: 366967670.

Date/timePositionNaut miles runAvg speedWind from/ knotsBaromVisibWave heightAir tempDewpointWater temp
2018-Feb-21 01:30N 38°58' W 090°33'2 3.9
2018-Feb-21 01:00N 38°58' W 090°30'2 4.7
2018-Feb-21 00:30N 38°58' W 090°27'2 4.6
2018-Feb-21 00:00N 38°58' W 090°24'2 4.7
2018-Feb-20 23:30N 38°57' W 090°22'2 4.7
2018-Feb-20 23:00N 38°56' W 090°19'3 5.1
2018-Feb-20 22:30N 38°55' W 090°16'3 6.0
2018-Feb-20 22:00N 38°54' W 090°12'3 5.7
2018-Feb-20 21:30N 38°52' W 090°09'0 0.8
2018-Feb-20 21:00N 38°52' W 090°09'0 0.2
2018-Feb-20 20:30N 38°52' W 090°09'0 0.0
2018-Feb-20 20:00N 38°52' W 090°09'0 0.5
2018-Feb-20 19:30N 38°52' W 090°09'1 1.1
2018-Feb-20 19:00N 38°52' W 090°08'0 0.0
2018-Feb-20 18:30N 38°52' W 090°08'0 0.0
2018-Feb-20 18:00N 38°52' W 090°08'0 0.0
2018-Feb-20 17:30N 38°52' W 090°08'0 0.0
2018-Feb-20 17:00N 38°52' W 090°08'0 0.0
2018-Feb-20 16:30N 38°52' W 090°08'0 0.0
2018-Feb-20 16:00N 38°52' W 090°08'0 0.0
2018-Feb-20 15:30N 38°52' W 090°08'0 0.0
2018-Feb-20 15:00N 38°52' W 090°08'2 4.3
2018-Feb-20 14:30N 38°50' W 090°06'0 0.1
2018-Feb-20 14:00N 38°50' W 090°06'0 0.0
2018-Feb-20 13:30N 38°50' W 090°06'0 0.0
2018-Feb-20 13:00N 38°50' W 090°06'0 0.0
2018-Feb-20 12:30N 38°50' W 090°06'0 0.0
2018-Feb-20 12:00N 38°50' W 090°06'0 0.0
2018-Feb-20 11:30N 38°50' W 090°06'0 0.0
2018-Feb-20 11:00N 38°50' W 090°06'0 0.0
2018-Feb-20 10:30N 38°50' W 090°06'0 0.0
2018-Feb-20 09:58N 38°50' W 090°06'0 0.0
2018-Feb-20 09:29N 38°50' W 090°06'0 0.0
2018-Feb-20 09:00N 38°50' W 090°06'0 0.0
2018-Feb-20 08:30N 38°50' W 090°06'0 0.0
2018-Feb-20 08:00N 38°50' W 090°06'0 0.0
2018-Feb-20 07:30N 38°50' W 090°06'0 0.0
2018-Feb-20 07:00N 38°50' W 090°06'0 0.0
2018-Feb-20 06:30N 38°50' W 090°06'0 0.0
2018-Feb-20 06:00N 38°50' W 090°06'0 0.0
2018-Feb-20 05:30N 38°50' W 090°06'0 0.0
2018-Feb-20 05:00N 38°50' W 090°06'0 0.0
2018-Feb-20 04:30N 38°50' W 090°06'0 0.0
2018-Feb-20 04:00N 38°50' W 090°06'0 0.0
2018-Feb-20 03:30N 38°50' W 090°06'0 0.0
2018-Feb-20 03:00N 38°50' W 090°06'0 0.0
2018-Feb-20 02:28N 38°50' W 090°06'0 0.0
2018-Feb-20 02:00N 38°50' W 090°06'1 1.7
2018-Feb-20 01:30N 38°51' W 090°06'2 3.2
2018-Feb-20 01:00N 38°52' W 090°08'0 0.0
2018-Feb-20 00:30N 38°52' W 090°08'0 0.0
2018-Feb-20 00:00N 38°52' W 090°08'0 0.0
2018-Feb-19 23:30N 38°52' W 090°08'0 0.0
2018-Feb-19 23:00N 38°52' W 090°08'0 0.0
2018-Feb-19 22:30N 38°52' W 090°08'0 0.0
2018-Feb-19 22:00N 38°52' W 090°08'0 0.0
2018-Feb-19 21:30N 38°52' W 090°08'0 0.0
2018-Feb-19 21:00N 38°52' W 090°08'0 0.0
2018-Feb-19 20:30N 38°52' W 090°08'0 0.0
2018-Feb-19 20:00N 38°52' W 090°08'0 0.0
2018-Feb-19 19:30N 38°52' W 090°08'0 0.0
2018-Feb-19 19:00N 38°52' W 090°08'0 0.0
2018-Feb-19 18:30N 38°52' W 090°08'0 0.0
2018-Feb-19 18:00N 38°52' W 090°08'0 0.0
2018-Feb-19 17:30N 38°52' W 090°08'0 0.0
2018-Feb-19 17:00N 38°52' W 090°08'0 0.0
2018-Feb-19 16:30N 38°52' W 090°08'0 0.0
2018-Feb-19 16:00N 38°52' W 090°08'0 0.0
2018-Feb-19 15:30N 38°52' W 090°08'0 0.0
2018-Feb-19 15:00N 38°52' W 090°08'0 0.0
2018-Feb-19 14:30N 38°52' W 090°08'0 0.0
2018-Feb-19 14:01N 38°52' W 090°08'0 0.0
2018-Feb-19 13:30N 38°52' W 090°08'0 0.0
2018-Feb-19 13:00N 38°52' W 090°08'0 0.0
2018-Feb-19 12:30N 38°52' W 090°08'0 0.0
2018-Feb-19 12:00N 38°52' W 090°08'0 0.0
2018-Feb-19 11:30N 38°52' W 090°08'0 0.7
2018-Feb-19 11:00N 38°51' W 090°08'2 3.8
2018-Feb-19 10:30N 38°50' W 090°07'2 4.3
2018-Feb-19 10:00N 38°48' W 090°07'2 4.2
2018-Feb-19 09:30N 38°46' W 090°08'1 1.6
2018-Feb-19 09:00N 38°45' W 090°09'2 3.6
2018-Feb-19 08:30N 38°43' W 090°10'2 3.2
2018-Feb-19 08:00N 38°42' W 090°11'0 0.5
2018-Feb-19 07:30N 38°42' W 090°11'1 1.7
2018-Feb-19 07:00N 38°41' W 090°11'2 4.6
2018-Feb-19 06:30N 38°39' W 090°11'3 5.5
2018-Feb-19 06:00N 38°36' W 090°11'4 5.1
2018-Feb-19 05:15N 38°33' W 090°15'1 3.2
2018-Feb-19 04:54N 38°32' W 090°15'0 0.0
2018-Feb-19 04:15N 38°32' W 090°15'0 0.0
2018-Feb-19 03:58N 38°32' W 090°15'0 0.0
2018-Feb-19 03:22N 38°32' W 090°15'0 0.0
2018-Feb-19 02:54N 38°32' W 090°15'0 0.0
2018-Feb-19 02:25N 38°32' W 090°15'0 0.0
2018-Feb-19 02:00N 38°32' W 090°15'0 0.0
2018-Feb-19 01:28N 38°32' W 090°15'  
2018-Feb-12 14:33N 38°32' W 090°15'0 0.1
2018-Feb-12 13:47N 38°32' W 090°15'0 0.0
2018-Feb-12 11:32N 38°32' W 090°15'0 0.0
2018-Feb-12 11:23N 38°32' W 090°15'0 0.2
2018-Feb-12 10:58N 38°32' W 090°15'0 0.6
2018-Feb-12 10:28N 38°32' W 090°15'0 0.0
2018-Feb-12 10:00N 38°32' W 090°15'0 0.3
2018-Feb-12 09:18N 38°32' W 090°15'0 0.3
2018-Feb-12 08:55N 38°32' W 090°15'0 1.1
2018-Feb-12 08:29N 38°32' W 090°15'0 0.0
2018-Feb-12 07:59N 38°32' W 090°15'1 1.6
2018-Feb-12 07:15N 38°31' W 090°16'8 3.7
2018-Feb-12 05:07N 38°38' W 090°11'2 8.0
2018-Feb-12 04:54N 38°40' W 090°11'2 2.3
2018-Feb-12 03:49N 38°42' W 090°11'1 2.8
2018-Feb-12 03:22N 38°44' W 090°10'1 2.0
2018-Feb-12 03:00N 38°44' W 090°09'0 0.6
2018-Feb-12 02:27N 38°44' W 090°09'0 0.0
2018-Feb-12 02:00N 38°44' W 090°09'0 0.0
2018-Feb-12 01:28N 38°44' W 090°09'0 0.0
2018-Feb-12 00:44N 38°44' W 090°09'0 0.2
2018-Feb-12 00:30N 38°45' W 090°09'0 0.6
2018-Feb-12 00:00N 38°45' W 090°09'1 1.9
2018-Feb-11 23:30N 38°46' W 090°08'2 3.8
2018-Feb-11 23:00N 38°47' W 090°07'3 6.2
2018-Feb-11 22:28N 38°51' W 090°06'3 5.4
2018-Feb-11 22:00N 38°52' W 090°09'0 0.3
2018-Feb-11 21:30N 38°52' W 090°09'0 0.2
2018-Feb-11 21:00N 38°52' W 090°09'0 0.0
2018-Feb-11 20:30N 38°52' W 090°09'0 0.2
2018-Feb-11 20:00N 38°52' W 090°09'0 0.0
2018-Feb-11 19:30N 38°52' W 090°09'1 1.9
2018-Feb-11 19:00N 38°53' W 090°10'3 5.2
2018-Feb-11 18:30N 38°54' W 090°13'0 0.3
2018-Feb-11 18:00N 38°55' W 090°13'0 0.0
2018-Feb-11 17:29N 38°55' W 090°13'0 0.0
2018-Feb-11 16:59N 38°55' W 090°13'0 0.0
2018-Feb-11 16:29N 38°55' W 090°13'0 0.0
2018-Feb-11 16:00N 38°55' W 090°13'0 0.0
2018-Feb-11 15:29N 38°55' W 090°13'0 0.0
2018-Feb-11 15:00N 38°55' W 090°13'0 0.0
2018-Feb-11 14:29N 38°55' W 090°13'0 0.0
2018-Feb-11 14:00N 38°55' W 090°13'0 0.0
2018-Feb-11 13:30N 38°55' W 090°13'1 1.5
2018-Feb-11 13:00N 38°55' W 090°14'3 6.5
2018-Feb-11 12:30N 38°55' W 090°18'3 5.6
2018-Feb-11 12:00N 38°57' W 090°21'3 5.6
2018-Feb-11 11:30N 38°58' W 090°24'3 5.5
2018-Feb-11 11:00N 38°58' W 090°28'2 4.5
2018-Feb-11 10:30N 38°57' W 090°31'2 3.9
2018-Feb-11 10:00N 38°58' W 090°33'2 4.6
2018-Feb-11 09:30N 39°00' W 090°34'2 4.4
2018-Feb-11 09:00N 39°02' W 090°35'2 3.2
2018-Feb-11 08:30N 39°04' W 090°35'2 4.5
2018-Feb-11 08:00N 39°06' W 090°36'2 4.4
2018-Feb-11 07:30N 39°08' W 090°37'2 4.4
2018-Feb-11 07:00N 39°10' W 090°37'2 4.1
2018-Feb-11 06:27N 39°12' W 090°36'  
Track history (hours):
 
Tides and Currents Weather Stations Pressure Air Temp Water Temp Dewpoint Dewpoint Depression Visibility Wind Speed Wind Dir Waves Ship Positions

Robin B Ingram

Owner: Ingram Barge Company LLC, Nashville, TN. More information available from US FCC via Universal Licensing System and Coast Guard Vessel Documentation Center.

Last reported at 2018-Feb-21 01:30 UTC. Time now 2018-Feb-21 01:57 UTC.
Position N 38°58' W 090°33'.

Length 39 m; draft 2.7 m.

Type: Towing. MMSI: 366967670.

Date/timePositionNaut miles runAvg speedWind from/ knotsBaromVisibWave heightAir tempDewpointWater temp
2018-Feb-21 01:30N 38°58' W 090°33'2 3.9
2018-Feb-21 01:00N 38°58' W 090°30'2 4.7
2018-Feb-21 00:30N 38°58' W 090°27'2 4.6
2018-Feb-21 00:00N 38°58' W 090°24'2 4.7
2018-Feb-20 23:30N 38°57' W 090°22'2 4.7
2018-Feb-20 23:00N 38°56' W 090°19'3 5.1
2018-Feb-20 22:30N 38°55' W 090°16'3 6.0
2018-Feb-20 22:00N 38°54' W 090°12'3 5.7
2018-Feb-20 21:30N 38°52' W 090°09'0 0.8
2018-Feb-20 21:00N 38°52' W 090°09'0 0.2
2018-Feb-20 20:30N 38°52' W 090°09'0 0.0
2018-Feb-20 20:00N 38°52' W 090°09'0 0.5
2018-Feb-20 19:30N 38°52' W 090°09'1 1.1
2018-Feb-20 19:00N 38°52' W 090°08'0 0.0
2018-Feb-20 18:30N 38°52' W 090°08'0 0.0
2018-Feb-20 18:00N 38°52' W 090°08'0 0.0
2018-Feb-20 17:30N 38°52' W 090°08'0 0.0
2018-Feb-20 17:00N 38°52' W 090°08'0 0.0
2018-Feb-20 16:30N 38°52' W 090°08'0 0.0
2018-Feb-20 16:00N 38°52' W 090°08'0 0.0
2018-Feb-20 15:30N 38°52' W 090°08'0 0.0
2018-Feb-20 15:00N 38°52' W 090°08'2 4.3
2018-Feb-20 14:30N 38°50' W 090°06'0 0.1
2018-Feb-20 14:00N 38°50' W 090°06'0 0.0
2018-Feb-20 13:30N 38°50' W 090°06'0 0.0
2018-Feb-20 13:00N 38°50' W 090°06'0 0.0
2018-Feb-20 12:30N 38°50' W 090°06'0 0.0
2018-Feb-20 12:00N 38°50' W 090°06'0 0.0
2018-Feb-20 11:30N 38°50' W 090°06'0 0.0
2018-Feb-20 11:00N 38°50' W 090°06'0 0.0
2018-Feb-20 10:30N 38°50' W 090°06'0 0.0
2018-Feb-20 09:58N 38°50' W 090°06'0 0.0
2018-Feb-20 09:29N 38°50' W 090°06'0 0.0
2018-Feb-20 09:00N 38°50' W 090°06'0 0.0
2018-Feb-20 08:30N 38°50' W 090°06'0 0.0
2018-Feb-20 08:00N 38°50' W 090°06'0 0.0
2018-Feb-20 07:30N 38°50' W 090°06'0 0.0
2018-Feb-20 07:00N 38°50' W 090°06'0 0.0
2018-Feb-20 06:30N 38°50' W 090°06'0 0.0
2018-Feb-20 06:00N 38°50' W 090°06'0 0.0
2018-Feb-20 05:30N 38°50' W 090°06'0 0.0
2018-Feb-20 05:00N 38°50' W 090°06'0 0.0
2018-Feb-20 04:30N 38°50' W 090°06'0 0.0
2018-Feb-20 04:00N 38°50' W 090°06'0 0.0
2018-Feb-20 03:30N 38°50' W 090°06'0 0.0
2018-Feb-20 03:00N 38°50' W 090°06'0 0.0
2018-Feb-20 02:28N 38°50' W 090°06'0 0.0
2018-Feb-20 02:00N 38°50' W 090°06'1 1.7
2018-Feb-20 01:30N 38°51' W 090°06'2 3.2
2018-Feb-20 01:00N 38°52' W 090°08'0 0.0
2018-Feb-20 00:30N 38°52' W 090°08'0 0.0
2018-Feb-20 00:00N 38°52' W 090°08'0 0.0
2018-Feb-19 23:30N 38°52' W 090°08'0 0.0
2018-Feb-19 23:00N 38°52' W 090°08'0 0.0
2018-Feb-19 22:30N 38°52' W 090°08'0 0.0
2018-Feb-19 22:00N 38°52' W 090°08'0 0.0
2018-Feb-19 21:30N 38°52' W 090°08'0 0.0
2018-Feb-19 21:00N 38°52' W 090°08'0 0.0
2018-Feb-19 20:30N 38°52' W 090°08'0 0.0
2018-Feb-19 20:00N 38°52' W 090°08'0 0.0
2018-Feb-19 19:30N 38°52' W 090°08'0 0.0
2018-Feb-19 19:00N 38°52' W 090°08'0 0.0
2018-Feb-19 18:30N 38°52' W 090°08'0 0.0
2018-Feb-19 18:00N 38°52' W 090°08'0 0.0
2018-Feb-19 17:30N 38°52' W 090°08'0 0.0
2018-Feb-19 17:00N 38°52' W 090°08'0 0.0
2018-Feb-19 16:30N 38°52' W 090°08'0 0.0
2018-Feb-19 16:00N 38°52' W 090°08'0 0.0
2018-Feb-19 15:30N 38°52' W 090°08'0 0.0
2018-Feb-19 15:00N 38°52' W 090°08'0 0.0
2018-Feb-19 14:30N 38°52' W 090°08'0 0.0
2018-Feb-19 14:01N 38°52' W 090°08'0 0.0
2018-Feb-19 13:30N 38°52' W 090°08'0 0.0
2018-Feb-19 13:00N 38°52' W 090°08'0 0.0
2018-Feb-19 12:30N 38°52' W 090°08'0 0.0
2018-Feb-19 12:00N 38°52' W 090°08'0 0.0
2018-Feb-19 11:30N 38°52' W 090°08'0 0.7
2018-Feb-19 11:00N 38°51' W 090°08'2 3.8
2018-Feb-19 10:30N 38°50' W 090°07'2 4.3
2018-Feb-19 10:00N 38°48' W 090°07'2 4.2
2018-Feb-19 09:30N 38°46' W 090°08'1 1.6
2018-Feb-19 09:00N 38°45' W 090°09'2 3.6
2018-Feb-19 08:30N 38°43' W 090°10'2 3.2
2018-Feb-19 08:00N 38°42' W 090°11'0 0.5
2018-Feb-19 07:30N 38°42' W 090°11'1 1.7
2018-Feb-19 07:00N 38°41' W 090°11'2 4.6
2018-Feb-19 06:30N 38°39' W 090°11'3 5.5
2018-Feb-19 06:00N 38°36' W 090°11'4 5.1
2018-Feb-19 05:15N 38°33' W 090°15'1 3.2
2018-Feb-19 04:54N 38°32' W 090°15'0 0.0
2018-Feb-19 04:15N 38°32' W 090°15'0 0.0
2018-Feb-19 03:58N 38°32' W 090°15'0 0.0
2018-Feb-19 03:22N 38°32' W 090°15'0 0.0
2018-Feb-19 02:54N 38°32' W 090°15'0 0.0
2018-Feb-19 02:25N 38°32' W 090°15'0 0.0
2018-Feb-19 02:00N 38°32' W 090°15'0 0.0
2018-Feb-19 01:28N 38°32' W 090°15'  
2018-Feb-12 14:33N 38°32' W 090°15'0 0.1
2018-Feb-12 13:47N 38°32' W 090°15'0 0.0
2018-Feb-12 11:32N 38°32' W 090°15'0 0.0
2018-Feb-12 11:23N 38°32' W 090°15'0 0.2
2018-Feb-12 10:58N 38°32' W 090°15'0 0.6
2018-Feb-12 10:28N 38°32' W 090°15'0 0.0
2018-Feb-12 10:00N 38°32' W 090°15'0 0.3
2018-Feb-12 09:18N 38°32' W 090°15'0 0.3
2018-Feb-12 08:55N 38°32' W 090°15'0 1.1
2018-Feb-12 08:29N 38°32' W 090°15'0 0.0
2018-Feb-12 07:59N 38°32' W 090°15'1 1.6
2018-Feb-12 07:15N 38°31' W 090°16'8 3.7
2018-Feb-12 05:07N 38°38' W 090°11'2 8.0
2018-Feb-12 04:54N 38°40' W 090°11'2 2.3
2018-Feb-12 03:49N 38°42' W 090°11'1 2.8
2018-Feb-12 03:22N 38°44' W 090°10'1 2.0
2018-Feb-12 03:00N 38°44' W 090°09'0 0.6
2018-Feb-12 02:27N 38°44' W 090°09'0 0.0
2018-Feb-12 02:00N 38°44' W 090°09'0 0.0
2018-Feb-12 01:28N 38°44' W 090°09'0 0.0
2018-Feb-12 00:44N 38°44' W 090°09'0 0.2
2018-Feb-12 00:30N 38°45' W 090°09'0 0.6
2018-Feb-12 00:00N 38°45' W 090°09'1 1.9
2018-Feb-11 23:30N 38°46' W 090°08'2 3.8
2018-Feb-11 23:00N 38°47' W 090°07'3 6.2
2018-Feb-11 22:28N 38°51' W 090°06'3 5.4
2018-Feb-11 22:00N 38°52' W 090°09'0 0.3
2018-Feb-11 21:30N 38°52' W 090°09'0 0.2
2018-Feb-11 21:00N 38°52' W 090°09'0 0.0
2018-Feb-11 20:30N 38°52' W 090°09'0 0.2
2018-Feb-11 20:00N 38°52' W 090°09'0 0.0
2018-Feb-11 19:30N 38°52' W 090°09'1 1.9
2018-Feb-11 19:00N 38°53' W 090°10'3 5.2
2018-Feb-11 18:30N 38°54' W 090°13'0 0.3
2018-Feb-11 18:00N 38°55' W 090°13'0 0.0
2018-Feb-11 17:29N 38°55' W 090°13'0 0.0
2018-Feb-11 16:59N 38°55' W 090°13'0 0.0
2018-Feb-11 16:29N 38°55' W 090°13'0 0.0
2018-Feb-11 16:00N 38°55' W 090°13'0 0.0
2018-Feb-11 15:29N 38°55' W 090°13'0 0.0
2018-Feb-11 15:00N 38°55' W 090°13'0 0.0
2018-Feb-11 14:29N 38°55' W 090°13'0 0.0
2018-Feb-11 14:00N 38°55' W 090°13'0 0.0
2018-Feb-11 13:30N 38°55' W 090°13'1 1.5
2018-Feb-11 13:00N 38°55' W 090°14'3 6.5
2018-Feb-11 12:30N 38°55' W 090°18'3 5.6
2018-Feb-11 12:00N 38°57' W 090°21'3 5.6
2018-Feb-11 11:30N 38°58' W 090°24'3 5.5
2018-Feb-11 11:00N 38°58' W 090°28'2 4.5
2018-Feb-11 10:30N 38°57' W 090°31'2 3.9
2018-Feb-11 10:00N 38°58' W 090°33'2 4.6
2018-Feb-11 09:30N 39°00' W 090°34'2 4.4
2018-Feb-11 09:00N 39°02' W 090°35'2 3.2
2018-Feb-11 08:30N 39°04' W 090°35'2 4.5
2018-Feb-11 08:00N 39°06' W 090°36'2 4.4
2018-Feb-11 07:30N 39°08' W 090°37'2 4.4
2018-Feb-11 07:00N 39°10' W 090°37'2 4.1
2018-Feb-11 06:27N 39°12' W 090°36'  

Dump ship's entire track history